createdAt,value
2017-09-09T00:02:12.306Z,7.10
2017-09-09T00:04:39.766Z,11.00
2017-09-09T00:07:07.232Z,9.67
2017-09-09T00:09:34.696Z,6.17
2017-09-09T00:12:02.150Z,6.77
2017-09-09T00:14:29.622Z,6.77
2017-09-09T00:16:57.090Z,12.07
2017-09-09T00:19:25.299Z,5.00
2017-09-09T00:21:52.749Z,9.00
2017-09-09T00:24:20.192Z,8.30
2017-09-09T00:26:47.660Z,11.30
2017-09-09T00:29:15.112Z,7.63
2017-09-09T00:31:42.582Z,6.43
2017-09-09T00:34:10.030Z,5.53
2017-09-09T00:36:37.486Z,11.10
2017-09-09T00:39:04.942Z,6.80
2017-09-09T00:41:32.398Z,15.97
2017-09-09T00:43:59.871Z,11.67
2017-09-09T00:46:27.328Z,7.23
2017-09-09T00:48:54.792Z,10.50
2017-09-09T00:51:22.269Z,9.87
2017-09-09T00:53:49.736Z,5.37
2017-09-09T00:56:17.194Z,5.90
2017-09-09T00:58:44.637Z,6.20
2017-09-09T01:01:12.093Z,10.40
2017-09-09T01:03:39.549Z,9.17
2017-09-09T01:06:06.995Z,9.27
2017-09-09T01:08:34.447Z,5.83
2017-09-09T01:11:01.902Z,10.70
2017-09-09T01:13:29.391Z,8.50
2017-09-09T01:15:56.853Z,6.83
2017-09-09T01:18:24.302Z,12.03
2017-09-09T01:20:51.763Z,5.20
2017-09-09T01:23:19.259Z,6.37
2017-09-09T01:25:46.704Z,5.60
2017-09-09T01:28:14.160Z,8.33
2017-09-09T01:30:42.397Z,12.07
2017-09-09T01:33:09.846Z,9.63
2017-09-09T01:35:37.301Z,8.57
2017-09-09T01:38:04.749Z,8.80
2017-09-09T01:40:32.230Z,11.43
2017-09-09T01:42:59.691Z,6.10
2017-09-09T01:45:27.167Z,10.20
2017-09-09T01:47:55.383Z,7.03
2017-09-09T01:50:22.853Z,13.00
2017-09-09T01:52:50.309Z,8.73
2017-09-09T01:55:17.792Z,7.63
2017-09-09T01:57:45.236Z,5.87
2017-09-09T02:00:12.690Z,6.87
2017-09-09T02:02:40.154Z,8.00
2017-09-09T02:05:07.617Z,7.33
2017-09-09T02:07:35.089Z,13.47
2017-09-09T02:10:03.316Z,5.37
2017-09-09T02:12:30.802Z,6.37
2017-09-09T02:14:58.252Z,7.17
2017-09-09T02:17:25.759Z,8.23
2017-09-09T02:19:53.967Z,8.03
2017-09-09T02:22:21.427Z,5.80
2017-09-09T02:24:48.878Z,6.60
2017-09-09T02:27:16.331Z,4.50
2017-09-09T02:32:17.843Z,4.37
2017-09-09T02:34:46.084Z,5.50
2017-09-09T02:37:13.540Z,5.73
2017-09-09T02:39:40.984Z,7.77
2017-09-09T02:42:08.446Z,4.30
2017-09-09T02:44:35.890Z,7.37
2017-09-09T02:47:03.350Z,3.90
2017-09-09T02:49:30.808Z,6.83
2017-09-09T02:51:58.272Z,6.30
2017-09-09T02:54:25.720Z,6.60
2017-09-09T02:56:53.180Z,5.63
2017-09-09T02:59:20.637Z,6.13
2017-09-09T03:01:48.101Z,11.10
2017-09-09T03:04:15.559Z,3.30
2017-09-09T03:06:43.012Z,5.57
2017-09-09T03:09:10.475Z,3.40
2017-09-09T03:11:37.929Z,6.93
2017-09-09T03:14:05.373Z,4.90
2017-09-09T03:16:32.874Z,3.37
2017-09-09T03:19:00.343Z,10.50
2017-09-09T03:21:27.814Z,8.87
2017-09-09T03:23:55.259Z,7.20
2017-09-09T03:26:22.733Z,5.90
2017-09-09T03:28:50.177Z,6.70
2017-09-09T03:31:17.670Z,5.23
2017-09-09T03:33:45.113Z,6.80
2017-09-09T03:36:12.582Z,10.03
2017-09-09T03:38:40.018Z,7.13
2017-09-09T03:41:07.475Z,6.20
2017-09-09T03:43:34.926Z,5.60
2017-09-09T03:46:02.398Z,5.47
2017-09-09T03:48:29.844Z,7.77
2017-09-09T03:50:57.318Z,6.40
2017-09-09T03:53:24.762Z,5.87
2017-09-09T03:55:52.261Z,7.93
2017-09-09T03:58:20.463Z,4.50
2017-09-09T04:00:47.929Z,4.17
2017-09-09T04:03:15.394Z,5.07
2017-09-09T04:05:42.845Z,9.30
2017-09-09T04:08:10.308Z,6.30
2017-09-09T04:10:37.760Z,4.17
2017-09-09T04:13:05.237Z,7.63
2017-09-09T04:15:32.684Z,8.47
2017-09-09T04:18:00.134Z,6.47
2017-09-09T04:20:27.584Z,11.67
2017-09-09T04:22:55.029Z,7.17
2017-09-09T04:25:22.485Z,7.70
2017-09-09T04:27:49.944Z,7.23
2017-09-09T04:30:17.404Z,5.43
2017-09-09T04:32:44.860Z,5.93
2017-09-09T04:35:12.304Z,5.30
2017-09-09T04:37:39.830Z,3.80
2017-09-09T04:40:08.052Z,4.73
2017-09-09T04:42:35.510Z,4.60
2017-09-09T04:45:02.961Z,7.87
2017-09-09T04:47:30.418Z,2.93
2017-09-09T04:49:57.881Z,7.43
2017-09-09T04:52:25.329Z,5.73
2017-09-09T04:54:52.778Z,8.67
2017-09-09T04:57:20.249Z,7.80
2017-09-09T04:59:47.698Z,5.97
2017-09-09T05:02:15.147Z,7.37
2017-09-09T05:04:42.628Z,3.33
2017-09-09T05:07:10.117Z,5.93
2017-09-09T05:09:37.535Z,13.23
2017-09-09T05:12:05.002Z,4.73
2017-09-09T05:14:32.462Z,6.20
2017-09-09T05:16:59.927Z,7.23
2017-09-09T05:19:27.380Z,3.70
2017-09-09T05:21:54.841Z,5.13
2017-09-09T05:24:22.295Z,7.03
2017-09-09T05:26:49.747Z,5.57
2017-09-09T05:29:17.206Z,6.77
2017-09-09T05:31:44.671Z,4.67
2017-09-09T05:34:12.124Z,9.77
2017-09-09T05:36:39.578Z,5.00
2017-09-09T05:39:07.014Z,7.50
2017-09-09T05:41:34.467Z,7.80
2017-09-09T05:44:01.911Z,5.70
2017-09-09T05:46:29.368Z,5.53
2017-09-09T05:48:56.812Z,9.30
2017-09-09T05:51:24.271Z,6.20
2017-09-09T05:53:51.718Z,10.53
2017-09-09T05:56:19.177Z,4.27
2017-09-09T05:58:46.638Z,8.70
2017-09-09T06:01:14.096Z,7.10
2017-09-09T06:03:41.529Z,6.40
2017-09-09T06:06:09.753Z,8.00
2017-09-09T06:08:37.202Z,9.60
2017-09-09T06:11:04.657Z,5.30
2017-09-09T06:13:32.102Z,4.23
2017-09-09T06:15:59.563Z,8.67
2017-09-09T06:18:27.014Z,9.63
2017-09-09T06:20:54.465Z,10.40
2017-09-09T06:23:21.911Z,9.63
2017-09-09T06:25:49.360Z,10.57
2017-09-09T06:28:16.824Z,11.13
2017-09-09T06:30:44.264Z,6.60
2017-09-09T06:33:12.485Z,13.73
2017-09-09T06:35:39.935Z,8.63
2017-09-09T06:38:07.381Z,8.67
2017-09-09T06:40:34.844Z,8.70
2017-09-09T06:43:02.299Z,10.37
2017-09-09T06:45:29.746Z,8.47
2017-09-09T06:47:57.202Z,9.37
2017-09-09T06:50:24.653Z,9.53
2017-09-09T06:52:52.102Z,7.80
2017-09-09T06:55:19.573Z,6.00
2017-09-09T06:57:47.024Z,7.43
2017-09-09T07:00:14.479Z,8.10
2017-09-09T07:02:41.919Z,9.03
2017-09-09T07:05:10.128Z,5.27
2017-09-09T07:07:37.582Z,7.00
2017-09-09T07:10:05.037Z,8.77
2017-09-09T07:12:32.473Z,8.80
2017-09-09T07:14:59.921Z,6.97
2017-09-09T07:17:28.137Z,6.70
2017-09-09T07:19:55.590Z,6.77
2017-09-09T07:22:23.084Z,11.97
2017-09-09T07:24:50.536Z,8.50
2017-09-09T07:27:18.000Z,9.00
2017-09-09T07:29:45.462Z,8.60
2017-09-09T07:32:12.897Z,8.30
2017-09-09T07:34:40.356Z,10.30
2017-09-09T07:37:07.817Z,6.10
2017-09-09T07:39:35.253Z,6.80
2017-09-09T07:42:02.703Z,6.63
2017-09-09T07:44:30.157Z,12.93
2017-09-09T07:46:57.601Z,11.80
2017-09-09T07:49:25.062Z,9.70
2017-09-09T07:51:52.508Z,10.73
2017-09-09T07:54:19.954Z,9.37
2017-09-09T07:56:47.401Z,13.30
2017-09-09T07:59:15.616Z,7.53
2017-09-09T08:01:43.058Z,7.90
2017-09-09T08:04:10.506Z,9.57
2017-09-09T08:06:37.965Z,7.53
2017-09-09T08:09:05.415Z,12.20
2017-09-09T08:11:32.856Z,12.90
2017-09-09T08:14:01.089Z,8.60
2017-09-09T08:16:28.543Z,10.53
2017-09-09T08:18:56.010Z,10.57
2017-09-09T08:21:23.460Z,12.00
2017-09-09T08:23:50.928Z,11.00
2017-09-09T08:26:18.382Z,5.10
2017-09-09T08:28:45.845Z,11.43
2017-09-09T08:31:13.299Z,9.63
2017-09-09T08:33:40.737Z,7.70
2017-09-09T08:36:08.202Z,10.77
2017-09-09T08:38:35.647Z,13.87
2017-09-09T08:41:03.115Z,7.83
2017-09-09T08:43:30.584Z,5.10
2017-09-09T08:45:58.038Z,6.97
2017-09-09T08:48:25.494Z,6.00
2017-09-09T08:50:52.938Z,5.77
2017-09-09T08:53:20.393Z,5.60
2017-09-09T08:55:47.854Z,6.10
2017-09-09T08:58:15.310Z,4.73
2017-09-09T09:00:42.758Z,8.70
2017-09-09T09:03:10.204Z,7.67
2017-09-09T09:05:37.653Z,11.87
2017-09-09T09:08:05.106Z,7.90
2017-09-09T09:10:32.549Z,7.07
2017-09-09T09:13:00.002Z,6.37
2017-09-09T09:15:27.454Z,7.23
2017-09-09T09:17:54.918Z,6.03
2017-09-09T09:20:22.440Z,8.97
2017-09-09T09:22:49.879Z,6.50
2017-09-09T09:25:17.329Z,6.90
2017-09-09T09:27:44.773Z,5.95
2017-09-09T09:30:12.229Z,8.83
2017-09-09T09:32:39.677Z,5.53
2017-09-09T09:35:07.128Z,11.10
2017-09-09T09:37:34.572Z,12.67
2017-09-09T09:40:02.023Z,7.00
2017-09-09T09:42:29.454Z,6.00
2017-09-09T09:44:56.906Z,6.40
2017-09-09T09:47:25.120Z,8.50
2017-09-09T09:49:52.586Z,6.20
2017-09-09T09:52:20.025Z,4.53
2017-09-09T09:54:47.481Z,5.30
2017-09-09T09:57:14.930Z,7.80
2017-09-09T09:59:43.129Z,4.67
2017-09-09T10:02:10.577Z,4.97
2017-09-09T10:04:38.025Z,4.13
2017-09-09T10:07:05.474Z,4.00
2017-09-09T10:09:33.676Z,3.30
2017-09-09T10:12:01.163Z,2.27
2017-09-09T10:14:28.719Z,3.23
2017-09-09T10:16:56.155Z,7.23
2017-09-09T10:19:23.600Z,7.20
2017-09-09T10:21:51.050Z,3.50
2017-09-09T10:24:24.240Z,3.73
2017-09-09T10:26:51.689Z,2.97
2017-09-09T10:29:19.132Z,6.90
2017-09-09T10:31:46.586Z,1.63
2017-09-09T10:34:14.025Z,2.43
2017-09-09T10:36:42.265Z,1.73
2017-09-09T10:39:09.702Z,1.90
2017-09-09T10:41:37.139Z,1.57
2017-09-09T10:44:04.589Z,2.37
2017-09-09T10:46:32.793Z,1.70
2017-09-09T10:49:00.258Z,3.83
2017-09-09T10:51:27.697Z,3.97
2017-09-09T10:53:55.146Z,5.20
2017-09-09T10:56:22.581Z,3.60
2017-09-09T10:58:50.793Z,4.57
2017-09-09T11:01:18.247Z,2.30
2017-09-09T11:03:45.704Z,2.23
2017-09-09T11:06:13.137Z,2.20
2017-09-09T11:08:40.571Z,3.43
2017-09-09T11:11:08.791Z,2.90
2017-09-09T11:13:36.229Z,2.30
2017-09-09T11:16:03.670Z,4.73
2017-09-09T11:18:31.869Z,2.50
2017-09-09T11:20:59.309Z,3.10
2017-09-09T11:23:26.756Z,2.73
2017-09-09T11:25:54.973Z,2.60
2017-09-09T11:28:22.413Z,3.47
2017-09-09T11:30:49.855Z,1.87
2017-09-09T11:33:17.292Z,2.43
2017-09-09T11:35:45.507Z,2.23
2017-09-09T11:38:12.944Z,2.57
2017-09-09T11:40:40.400Z,2.63
2017-09-09T11:43:07.845Z,2.63
2017-09-09T11:45:36.057Z,2.23
2017-09-09T11:48:03.596Z,4.20
2017-09-09T11:50:31.056Z,3.83
2017-09-09T11:52:58.505Z,2.27
2017-09-09T11:55:25.950Z,2.23
2017-09-09T11:57:54.158Z,2.47
2017-09-09T12:00:21.598Z,2.80
2017-09-09T12:02:49.045Z,2.40
2017-09-09T12:05:16.486Z,3.73
2017-09-09T12:07:44.696Z,2.30
2017-09-09T12:10:12.131Z,3.23
2017-09-09T12:12:39.584Z,2.77
2017-09-09T12:15:07.024Z,2.87
2017-09-09T12:17:34.475Z,2.70
2017-09-09T12:20:01.916Z,2.30
2017-09-09T12:22:29.350Z,4.43
2017-09-09T12:24:56.797Z,1.47
2017-09-09T12:27:24.235Z,3.13
2017-09-09T12:29:51.687Z,3.30
2017-09-09T12:32:19.137Z,1.83
2017-09-09T12:34:46.594Z,1.70
2017-09-09T12:37:14.817Z,2.73
2017-09-09T12:39:42.249Z,1.97
2017-09-09T12:42:09.693Z,2.40
2017-09-09T12:44:37.920Z,2.10
2017-09-09T12:47:05.361Z,2.70
2017-09-09T12:49:32.826Z,3.03
2017-09-09T12:52:00.262Z,2.23
2017-09-09T12:54:27.739Z,1.83
2017-09-09T12:56:55.193Z,3.17
2017-09-09T12:59:22.649Z,3.67
2017-09-09T13:01:50.109Z,1.87
2017-09-09T13:04:17.577Z,3.00
2017-09-09T13:06:45.020Z,1.70
2017-09-09T13:09:12.479Z,2.27
2017-09-09T13:11:39.925Z,3.13
2017-09-09T13:14:07.377Z,2.97
2017-09-09T13:16:34.844Z,2.10
2017-09-09T13:19:02.286Z,1.70
2017-09-09T13:21:29.749Z,2.27
2017-09-09T13:23:57.202Z,2.07
2017-09-09T13:26:24.657Z,2.27
2017-09-09T13:28:52.105Z,1.80
2017-09-09T13:31:19.548Z,1.60
2017-09-09T13:33:47.784Z,1.97
2017-09-09T13:36:15.220Z,1.90
2017-09-09T13:38:42.681Z,2.50
2017-09-09T13:41:10.163Z,2.17
2017-09-09T13:43:37.598Z,2.73
2017-09-09T13:46:05.061Z,1.50
2017-09-09T13:48:32.533Z,2.00
2017-09-09T13:50:59.987Z,6.03
2017-09-09T13:53:27.440Z,2.10
2017-09-09T13:55:54.869Z,1.97
2017-09-09T13:58:22.318Z,2.03
2017-09-09T14:00:49.767Z,1.80
2017-09-09T14:03:17.242Z,2.23
2017-09-09T14:05:44.675Z,2.97
2017-09-09T14:08:12.119Z,2.43
2017-09-09T14:10:40.325Z,2.23
2017-09-09T14:13:07.777Z,2.00
2017-09-09T14:15:35.234Z,1.73
2017-09-09T14:18:02.676Z,1.93
2017-09-09T14:20:30.136Z,3.80
2017-09-09T14:22:57.599Z,2.60
2017-09-09T14:25:25.042Z,2.00
2017-09-09T14:27:52.484Z,1.37
2017-09-09T14:30:20.698Z,2.10
2017-09-09T14:32:48.146Z,1.83
2017-09-09T14:35:15.610Z,1.60
2017-09-09T14:37:43.055Z,2.37
2017-09-09T14:40:10.484Z,3.03
2017-09-09T14:42:38.693Z,2.30
2017-09-09T14:45:06.146Z,2.20
2017-09-09T14:47:33.602Z,2.33
2017-09-09T14:50:01.049Z,2.60
2017-09-09T14:52:28.509Z,2.13
2017-09-09T14:54:55.950Z,2.43
2017-09-09T14:57:23.427Z,1.87
2017-09-09T14:59:50.860Z,3.00
2017-09-09T15:02:18.306Z,3.10
2017-09-09T15:04:46.515Z,3.43
2017-09-09T15:07:13.970Z,2.93
2017-09-09T15:09:41.426Z,2.40
2017-09-09T15:12:08.894Z,2.50
2017-09-09T15:14:36.347Z,6.07
2017-09-09T15:17:03.800Z,2.97
2017-09-09T15:19:31.254Z,2.67
2017-09-09T15:21:58.689Z,2.47
2017-09-09T15:24:26.146Z,2.10
2017-09-09T15:26:53.607Z,5.63
2017-09-09T15:29:21.067Z,3.40
2017-09-09T15:31:48.498Z,2.70
2017-09-09T15:34:16.714Z,4.00
2017-09-09T15:36:44.152Z,2.93
2017-09-09T15:39:11.619Z,6.10
2017-09-09T15:41:39.053Z,3.07
2017-09-09T15:44:07.268Z,3.43
2017-09-09T15:46:34.714Z,3.23
2017-09-09T15:49:02.165Z,2.67
2017-09-09T15:51:29.613Z,2.87
2017-09-09T15:53:57.066Z,3.83
2017-09-09T15:56:24.529Z,2.67
2017-09-09T15:58:51.966Z,6.00
2017-09-09T16:01:19.435Z,2.60
2017-09-09T16:03:46.872Z,2.60
2017-09-09T16:06:14.331Z,5.97
2017-09-09T16:08:42.540Z,5.50
2017-09-09T16:11:09.988Z,3.23
2017-09-09T16:13:37.464Z,5.10
2017-09-09T16:16:04.919Z,3.80
2017-09-09T16:18:32.373Z,3.53
2017-09-09T16:20:59.831Z,3.90
2017-09-09T16:23:27.294Z,3.47
2017-09-09T16:25:54.750Z,3.00
2017-09-09T16:28:22.220Z,4.10
2017-09-09T16:30:49.654Z,5.20
2017-09-09T16:33:17.108Z,3.13
2017-09-09T16:35:44.562Z,3.30
2017-09-09T16:38:12.019Z,4.80
2017-09-09T16:40:39.473Z,3.63
2017-09-09T16:43:06.927Z,4.10
2017-09-09T16:45:34.376Z,3.83
2017-09-09T16:48:01.840Z,3.63
2017-09-09T16:50:29.291Z,4.87
2017-09-09T16:52:56.746Z,4.43
2017-09-09T16:55:24.203Z,4.63
2017-09-09T16:57:51.628Z,6.57
2017-09-09T17:00:19.848Z,4.00
2017-09-09T17:02:47.290Z,2.93
2017-09-09T17:05:14.740Z,5.90
2017-09-09T17:07:42.239Z,5.37
2017-09-09T17:10:09.706Z,4.43
2017-09-09T17:12:37.148Z,3.73
2017-09-09T17:15:04.605Z,6.97
2017-09-09T17:17:33.701Z,3.13
2017-09-09T17:20:01.157Z,4.93
2017-09-09T17:22:28.712Z,6.70
2017-09-09T17:24:56.200Z,5.00
2017-09-09T17:27:23.650Z,4.33
2017-09-09T17:29:51.153Z,6.93
2017-09-09T17:32:18.633Z,4.83
2017-09-09T17:34:46.105Z,4.60
2017-09-09T17:37:13.581Z,6.60
2017-09-09T17:39:41.067Z,5.50
2017-09-09T17:42:09.271Z,6.43
2017-09-09T17:44:36.725Z,6.27
2017-09-09T17:47:04.173Z,6.40
2017-09-09T17:49:31.613Z,3.47
2017-09-09T17:51:59.054Z,4.77
2017-09-09T17:54:27.267Z,7.40
2017-09-09T17:56:54.715Z,14.20
2017-09-09T17:59:22.148Z,9.00
2017-09-09T18:01:49.633Z,5.50
2017-09-09T18:04:17.077Z,8.33
2017-09-09T18:06:44.531Z,6.30
2017-09-09T18:09:11.989Z,7.17
2017-09-09T18:11:39.478Z,5.37
2017-09-09T18:14:06.926Z,5.80
2017-09-09T18:16:34.383Z,4.80
2017-09-09T18:24:45.734Z,4.73
2017-09-09T18:27:13.186Z,3.93
2017-09-09T18:29:40.675Z,4.97
2017-09-09T18:32:08.116Z,5.00
2017-09-09T18:34:36.340Z,4.47
2017-09-09T18:37:03.785Z,5.63
2017-09-09T18:39:31.233Z,5.70
2017-09-09T18:41:58.672Z,4.27
2017-09-09T18:44:26.893Z,4.03
2017-09-09T18:46:54.338Z,3.23
2017-09-09T18:49:21.784Z,2.97
2017-09-09T18:51:49.228Z,3.83
2017-09-09T18:54:16.685Z,3.70
2017-09-09T18:56:44.388Z,7.13
2017-09-09T18:59:11.901Z,5.90
2017-09-09T19:01:39.385Z,4.03
2017-09-09T19:04:06.863Z,3.40
2017-09-09T19:06:34.319Z,6.83
2017-09-09T19:09:01.793Z,6.20
2017-09-09T19:11:29.262Z,4.03
2017-09-09T19:13:56.727Z,5.50
2017-09-09T19:16:24.185Z,6.13
2017-09-09T19:18:51.673Z,4.67
2017-09-09T19:21:19.152Z,6.03
2017-09-09T19:23:46.631Z,5.90
2017-09-09T19:26:14.857Z,4.37
2017-09-09T19:28:42.320Z,7.37
2017-09-09T19:31:09.822Z,6.70
2017-09-09T19:33:38.025Z,8.07
2017-09-09T19:36:05.475Z,4.30
2017-09-09T19:38:32.922Z,5.80
2017-09-09T19:41:00.374Z,5.80
2017-09-09T19:43:27.831Z,4.20
2017-09-09T19:45:55.294Z,5.03
2017-09-09T19:48:23.510Z,4.63
2017-09-09T19:50:50.963Z,5.13
2017-09-09T19:53:18.418Z,5.87
2017-09-09T19:55:45.906Z,4.60
2017-09-09T19:58:13.329Z,8.67
2017-09-09T20:00:40.802Z,6.90
2017-09-09T20:03:09.009Z,4.60
2017-09-09T20:05:37.218Z,3.63
2017-09-09T20:08:04.671Z,3.87
2017-09-09T20:10:32.171Z,4.07
2017-09-09T20:12:59.638Z,4.90
2017-09-09T20:15:27.089Z,4.50
2017-09-09T20:17:54.561Z,3.80
2017-09-09T20:20:22.016Z,3.40
2017-09-09T20:22:49.494Z,4.50
2017-09-09T20:25:17.706Z,4.53
2017-09-09T20:27:45.173Z,3.23
2017-09-09T20:30:12.632Z,3.40
2017-09-09T20:32:44.042Z,3.30
2017-09-09T20:35:11.548Z,4.97
2017-09-09T20:37:39.032Z,6.53
2017-09-09T20:40:06.522Z,3.17
2017-09-09T20:42:34.005Z,3.00
2017-09-09T20:45:01.457Z,3.53
2017-09-09T20:47:28.905Z,4.50
2017-09-09T20:49:56.393Z,4.57
2017-09-09T20:52:24.611Z,3.23
2017-09-09T20:54:52.053Z,4.67
2017-09-09T20:57:20.261Z,5.13
2017-09-09T20:59:47.736Z,2.90
2017-09-09T21:02:15.181Z,5.63
2017-09-09T21:04:42.644Z,2.10
2017-09-09T21:07:10.108Z,3.20
2017-09-09T21:12:12.167Z,2.40
2017-09-09T21:14:39.629Z,2.77
2017-09-09T21:17:07.087Z,8.33
2017-09-09T21:19:34.540Z,3.53
2017-09-09T21:22:02.000Z,5.07
2017-09-09T21:24:29.474Z,4.53
2017-09-09T21:26:56.931Z,3.70
2017-09-09T21:29:24.382Z,4.43
2017-09-09T21:31:51.832Z,4.70
2017-09-09T21:34:19.290Z,3.10
2017-09-09T21:36:46.750Z,4.97
2017-09-09T21:39:14.202Z,4.93
2017-09-09T21:41:41.650Z,3.03
2017-09-09T21:44:09.119Z,2.70
2017-09-09T21:46:36.561Z,2.77
2017-09-09T21:49:04.029Z,3.17
2017-09-09T21:51:31.490Z,7.53
2017-09-09T21:53:58.945Z,4.73
2017-09-09T21:56:26.396Z,2.63
2017-09-09T21:58:53.851Z,4.43
2017-09-09T22:01:21.305Z,2.83
2017-09-09T22:03:48.759Z,4.43
2017-09-09T22:06:16.232Z,4.37
2017-09-09T22:08:43.663Z,2.57
2017-09-09T22:11:11.118Z,3.80
2017-09-09T22:13:38.570Z,3.27
2017-09-09T22:16:06.070Z,3.13
2017-09-09T22:18:33.607Z,3.40
2017-09-09T22:21:01.126Z,2.70
2017-09-09T22:23:29.401Z,3.73
2017-09-09T22:25:57.675Z,3.17
2017-09-09T22:28:25.162Z,4.83
2017-09-09T22:30:52.639Z,2.70
2017-09-09T22:33:20.176Z,2.40
2017-09-09T22:35:47.674Z,2.53
2017-09-09T22:38:15.222Z,2.50
2017-09-09T22:40:42.709Z,5.50
2017-09-09T22:43:10.270Z,2.57
2017-09-09T22:45:37.790Z,3.10
2017-09-09T22:48:05.328Z,3.00
2017-09-09T22:50:32.829Z,1.73
2017-09-09T22:53:00.368Z,4.73
2017-09-09T22:55:27.900Z,3.17
2017-09-09T22:57:55.394Z,2.13
2017-09-09T23:00:22.933Z,3.40
2017-09-09T23:02:50.470Z,2.43
2017-09-09T23:05:18.045Z,6.17
2017-09-09T23:07:45.545Z,2.80
2017-09-09T23:10:13.031Z,4.77
2017-09-09T23:12:41.286Z,2.20
2017-09-09T23:15:08.783Z,3.43
2017-09-09T23:17:36.257Z,2.20
2017-09-09T23:20:03.750Z,3.10
2017-09-09T23:22:31.234Z,6.20
2017-09-09T23:24:59.485Z,3.60
2017-09-09T23:27:26.980Z,5.47
2017-09-09T23:29:54.466Z,2.83
2017-09-09T23:32:21.983Z,2.90
2017-09-09T23:34:49.473Z,3.30
2017-09-09T23:37:17.043Z,3.47
2017-09-09T23:39:44.592Z,3.43
2017-09-09T23:42:12.862Z,3.50
2017-09-09T23:44:40.381Z,4.33
2017-09-09T23:47:07.915Z,4.50
2017-09-09T23:49:35.399Z,2.47
2017-09-09T23:52:02.857Z,2.90
2017-09-09T23:54:31.371Z,3.07
2017-09-09T23:57:01.238Z,3.20
2017-09-09T23:59:51.553Z,4.17
